createdAt,value
2023-05-14T00:00:48.302Z,98.50
2023-05-14T00:03:15.249Z,98.50
2023-05-14T00:05:42.067Z,98.50
2023-05-14T00:08:08.776Z,98.50
2023-05-14T00:10:35.505Z,98.50
2023-05-14T00:13:02.233Z,98.50
2023-05-14T00:15:28.991Z,98.50
2023-05-14T00:17:55.703Z,98.50
2023-05-14T00:20:22.573Z,98.50
2023-05-14T00:22:49.496Z,98.50
2023-05-14T00:25:16.187Z,98.50
2023-05-14T00:27:42.863Z,98.50
2023-05-14T00:30:09.818Z,98.50
2023-05-14T00:32:36.593Z,98.50
2023-05-14T00:35:04.401Z,98.50
2023-05-14T00:37:31.142Z,98.50
2023-05-14T00:39:58.346Z,98.50
2023-05-14T00:42:25.189Z,98.50
2023-05-14T00:44:51.847Z,98.50
2023-05-14T00:47:18.772Z,98.50
2023-05-14T00:49:45.786Z,98.50
2023-05-14T00:52:12.803Z,98.50
2023-05-14T00:54:40.077Z,98.50
2023-05-14T00:57:07.072Z,98.50
2023-05-14T00:59:34.156Z,98.50
2023-05-14T01:02:01.088Z,98.50
2023-05-14T01:04:29.462Z,98.50
2023-05-14T01:07:22.992Z,98.50
2023-05-14T01:10:02.573Z,98.50
2023-05-14T01:12:57.561Z,98.50
2023-05-14T01:15:30.351Z,98.50
2023-05-14T01:18:01.719Z,98.50
2023-05-14T01:20:28.654Z,98.50
2023-05-14T01:22:55.325Z,98.50
2023-05-14T01:25:21.970Z,98.50
2023-05-14T01:28:18.782Z,98.50
2023-05-14T01:30:51.363Z,98.50
2023-05-14T01:33:19.729Z,98.50
2023-05-14T01:35:46.737Z,98.50
2023-05-14T01:38:17.786Z,98.50
2023-05-14T01:40:46.114Z,98.50
2023-05-14T01:43:13.778Z,98.50
2023-05-14T01:45:40.629Z,98.50
2023-05-14T01:48:07.459Z,98.50
2023-05-14T01:50:34.280Z,98.50
2023-05-14T01:53:01.026Z,98.50
2023-05-14T01:55:27.713Z,98.50
2023-05-14T01:57:54.683Z,98.50
2023-05-14T02:00:25.224Z,98.50
2023-05-14T02:02:52.298Z,98.50
2023-05-14T02:05:19.209Z,98.50
2023-05-14T02:07:45.947Z,98.50
2023-05-14T02:10:12.621Z,98.50
2023-05-14T02:12:39.343Z,98.50
2023-05-14T02:15:06.533Z,98.50
2023-05-14T02:17:33.266Z,98.50
2023-05-14T02:19:59.961Z,98.50
2023-05-14T02:22:26.648Z,98.50
2023-05-14T02:24:53.310Z,98.50
2023-05-14T02:27:20.074Z,98.50
2023-05-14T02:29:46.745Z,98.50
2023-05-14T02:32:13.541Z,98.50
2023-05-14T02:34:40.319Z,98.50
2023-05-14T02:37:07.089Z,98.50
2023-05-14T02:39:33.828Z,98.50
2023-05-14T02:42:00.489Z,98.50
2023-05-14T02:44:27.175Z,98.50
2023-05-14T02:46:53.847Z,98.50
2023-05-14T02:49:20.968Z,98.50
2023-05-14T02:51:47.611Z,98.50
2023-05-14T02:54:16.332Z,98.50
2023-05-14T02:56:43.061Z,98.50
2023-05-14T02:59:09.718Z,98.50
2023-05-14T03:01:36.886Z,98.50
2023-05-14T03:04:04.156Z,98.50
2023-05-14T03:06:31.471Z,98.50
2023-05-14T03:08:58.167Z,98.50
2023-05-14T03:11:25.070Z,98.50
2023-05-14T03:13:51.811Z,98.50
2023-05-14T03:16:18.650Z,98.50
2023-05-14T03:18:45.557Z,98.50
2023-05-14T03:21:13.202Z,98.50
2023-05-14T03:23:39.955Z,98.50
2023-05-14T03:26:06.665Z,98.50
2023-05-14T03:28:33.388Z,98.50
2023-05-14T03:31:00.324Z,98.50
2023-05-14T03:33:27.201Z,98.50
2023-05-14T03:35:53.852Z,98.50
2023-05-14T03:38:20.517Z,98.50
2023-05-14T03:40:47.210Z,98.50
2023-05-14T03:43:13.879Z,98.50
2023-05-14T03:45:40.558Z,98.50
2023-05-14T03:48:07.446Z,98.50
2023-05-14T03:50:34.256Z,98.50
2023-05-14T03:53:01.046Z,98.50
2023-05-14T03:55:27.744Z,98.50
2023-05-14T03:57:54.441Z,98.50
2023-05-14T04:00:21.713Z,98.50
2023-05-14T04:02:48.616Z,98.50
2023-05-14T04:05:15.438Z,98.50
2023-05-14T04:07:42.088Z,98.50
2023-05-14T04:10:09.294Z,98.50
2023-05-14T04:12:36.021Z,98.50
2023-05-14T04:15:02.730Z,98.50
2023-05-14T04:17:29.406Z,98.50
2023-05-14T04:19:56.121Z,98.50
2023-05-14T04:22:22.879Z,98.50
2023-05-14T04:24:49.501Z,98.50
2023-05-14T04:27:22.300Z,98.50
2023-05-14T04:29:50.019Z,98.50
2023-05-14T04:32:17.734Z,98.50
2023-05-14T04:34:44.688Z,98.50
2023-05-14T04:37:11.354Z,98.50
2023-05-14T04:39:38.408Z,98.50
2023-05-14T04:42:06.712Z,98.50
2023-05-14T04:44:34.749Z,98.50
2023-05-14T04:47:02.229Z,98.50
2023-05-14T04:49:29.146Z,98.50
2023-05-14T04:51:55.825Z,98.50
2023-05-14T04:54:22.762Z,98.50
2023-05-14T04:56:49.945Z,98.50
2023-05-14T04:59:16.617Z,98.50
2023-05-14T05:01:43.317Z,98.50
2023-05-14T05:04:10.306Z,98.50
2023-05-14T05:06:37.118Z,98.50
2023-05-14T05:09:04.477Z,98.50
2023-05-14T05:11:31.164Z,98.50
2023-05-14T05:13:57.838Z,98.50
2023-05-14T05:16:24.632Z,98.50
2023-05-14T05:18:51.465Z,98.50
2023-05-14T05:21:18.144Z,98.50
2023-05-14T05:23:44.795Z,98.50
2023-05-14T05:26:11.457Z,98.50
2023-05-14T05:28:38.108Z,98.50
2023-05-14T05:31:05.471Z,98.50
2023-05-14T05:33:32.224Z,98.50
2023-05-14T05:35:58.904Z,98.50
2023-05-14T05:38:25.682Z,98.50
2023-05-14T05:40:52.834Z,98.50
2023-05-14T05:43:19.491Z,98.50
2023-05-14T05:45:46.244Z,98.50
2023-05-14T05:48:12.965Z,98.50
2023-05-14T05:50:39.614Z,98.50
2023-05-14T05:53:06.268Z,98.50
2023-05-14T05:55:33.097Z,98.50
2023-05-14T05:57:59.776Z,98.50
2023-05-14T06:00:26.767Z,98.50
2023-05-14T06:02:53.726Z,98.50
2023-05-14T06:05:20.588Z,98.50
2023-05-14T06:07:47.360Z,98.50
2023-05-14T06:10:14.176Z,98.50
2023-05-14T06:12:40.889Z,98.50
2023-05-14T06:15:08.436Z,98.50
2023-05-14T06:17:35.233Z,98.50
2023-05-14T06:20:01.996Z,98.50
2023-05-14T06:22:28.654Z,98.50
2023-05-14T06:24:55.348Z,98.50
2023-05-14T06:27:22.022Z,98.50
2023-05-14T06:29:48.742Z,98.50
2023-05-14T06:32:15.701Z,98.50
2023-05-14T06:34:42.765Z,98.50
2023-05-14T06:37:10.473Z,98.50
2023-05-14T06:39:38.269Z,98.50
2023-05-14T06:42:05.769Z,98.50
2023-05-14T06:44:32.516Z,98.50
2023-05-14T06:46:59.203Z,98.50
2023-05-14T06:49:26.240Z,98.50
2023-05-14T06:51:54.124Z,98.50
2023-05-14T06:54:20.866Z,98.50
2023-05-14T06:56:47.557Z,98.50
2023-05-14T06:59:14.263Z,98.50
2023-05-14T07:01:41.125Z,98.50
2023-05-14T07:04:08.055Z,98.50
2023-05-14T07:06:35.263Z,98.50
2023-05-14T07:09:02.516Z,98.50
2023-05-14T07:11:29.220Z,98.50
2023-05-14T07:13:55.956Z,98.50
2023-05-14T07:16:22.767Z,98.50
2023-05-14T07:18:49.512Z,98.50
2023-05-14T07:21:16.371Z,98.50
2023-05-14T07:23:43.033Z,98.50
2023-05-14T07:26:09.860Z,98.50
2023-05-14T07:28:36.554Z,98.50
2023-05-14T07:31:08.655Z,98.50
2023-05-14T07:33:36.553Z,98.50
2023-05-14T07:36:03.376Z,98.50
2023-05-14T07:38:30.268Z,98.50
2023-05-14T07:40:56.922Z,98.50
2023-05-14T07:43:23.635Z,98.50
2023-05-14T07:45:50.568Z,98.50
2023-05-14T07:48:17.405Z,98.50
2023-05-14T07:50:44.189Z,98.50
2023-05-14T07:53:10.995Z,98.50
2023-05-14T07:55:37.683Z,98.50
2023-05-14T07:58:04.366Z,98.50
2023-05-14T08:00:31.407Z,98.50
2023-05-14T08:02:58.270Z,98.50
2023-05-14T08:05:25.164Z,98.50
2023-05-14T08:07:51.859Z,98.50
2023-05-14T08:10:18.582Z,98.50
2023-05-14T08:12:45.381Z,98.50
2023-05-14T08:15:12.599Z,98.50
2023-05-14T08:17:39.395Z,98.50
2023-05-14T08:20:06.912Z,98.50
2023-05-14T08:22:33.624Z,98.50
2023-05-14T08:25:01.573Z,98.50
2023-05-14T08:27:28.263Z,98.50
2023-05-14T08:29:54.911Z,98.50
2023-05-14T08:32:23.673Z,98.50
2023-05-14T08:34:52.046Z,98.50
2023-05-14T08:37:18.789Z,98.50
2023-05-14T08:39:45.491Z,98.50
2023-05-14T08:42:13.416Z,98.50
2023-05-14T08:44:50.056Z,98.50
2023-05-14T08:47:18.816Z,98.50
2023-05-14T08:49:47.942Z,98.50
2023-05-14T08:52:17.967Z,98.50
2023-05-14T08:54:46.707Z,98.50
2023-05-14T08:57:14.322Z,98.50
2023-05-14T08:59:41.232Z,98.50
2023-05-14T09:02:11.810Z,98.50
2023-05-14T09:04:39.482Z,98.50
2023-05-14T09:07:07.529Z,98.50
2023-05-14T09:09:34.858Z,98.50
2023-05-14T09:12:01.588Z,98.50
2023-05-14T09:14:28.307Z,98.50
2023-05-14T09:16:55.499Z,98.50
2023-05-14T09:19:22.353Z,98.50
2023-05-14T09:21:49.946Z,98.50
2023-05-14T09:24:24.590Z,98.50
2023-05-14T09:26:54.124Z,98.50
2023-05-14T09:29:20.888Z,98.50
2023-05-14T09:31:51.479Z,98.50
2023-05-14T09:34:29.480Z,98.50
2023-05-14T09:37:01.853Z,98.50
2023-05-14T09:39:29.557Z,98.50
2023-05-14T09:41:56.685Z,98.50
2023-05-14T09:44:24.958Z,98.50
2023-05-14T09:46:52.566Z,98.50
2023-05-14T09:49:20.056Z,98.50
2023-05-14T09:51:48.215Z,98.50
2023-05-14T09:54:14.930Z,98.50
2023-05-14T09:56:42.940Z,98.50
2023-05-14T09:59:09.906Z,98.50
2023-05-14T10:01:37.773Z,98.50
2023-05-14T10:04:07.712Z,98.50
2023-05-14T10:06:37.747Z,98.50
2023-05-14T10:09:09.920Z,98.50
2023-05-14T10:11:39.157Z,98.50
2023-05-14T10:14:18.222Z,98.50
2023-05-14T10:16:51.077Z,98.50
2023-05-14T10:19:20.990Z,98.50
2023-05-14T10:21:53.023Z,98.50
2023-05-14T10:24:20.554Z,98.50
2023-05-14T10:26:47.757Z,98.50
2023-05-14T10:29:14.552Z,98.50
2023-05-14T10:31:55.369Z,98.50
2023-05-14T10:34:41.168Z,98.50
2023-05-14T10:37:10.003Z,98.50
2023-05-14T10:40:06.527Z,98.50
2023-05-14T10:42:43.290Z,98.50
2023-05-14T10:45:16.338Z,98.50
2023-05-14T10:47:46.319Z,98.50
2023-05-14T10:50:15.213Z,98.50
2023-05-14T10:52:43.593Z,98.50
2023-05-14T10:55:14.255Z,98.50
2023-05-14T10:57:43.379Z,98.50
2023-05-14T11:00:11.479Z,98.50
2023-05-14T11:02:39.913Z,98.50
2023-05-14T11:05:09.205Z,98.50
2023-05-14T11:07:38.000Z,98.50
2023-05-14T11:10:09.985Z,98.50
2023-05-14T11:12:39.574Z,98.50
2023-05-14T11:15:12.068Z,98.50
2023-05-14T11:17:40.863Z,98.50
2023-05-14T11:20:08.967Z,98.50
2023-05-14T11:22:37.063Z,98.50
2023-05-14T11:25:04.406Z,98.50
2023-05-14T11:27:34.147Z,98.50
2023-05-14T11:30:01.190Z,98.50
2023-05-14T11:32:28.123Z,98.50
2023-05-14T11:34:54.801Z,98.50
2023-05-14T11:37:21.652Z,98.50
2023-05-14T11:39:53.616Z,98.50
2023-05-14T11:42:22.257Z,98.50
2023-05-14T11:44:51.694Z,98.50
2023-05-14T11:47:20.306Z,98.50
2023-05-14T11:49:47.504Z,98.50
2023-05-14T11:52:15.378Z,98.50
2023-05-14T11:54:45.717Z,98.50
2023-05-14T11:57:15.656Z,98.50
2023-05-14T11:59:42.511Z,98.50
2023-05-14T12:02:14.214Z,98.50
2023-05-14T12:04:42.286Z,98.50
2023-05-14T12:07:11.685Z,98.50
2023-05-14T12:09:42.067Z,98.50
2023-05-14T12:12:11.705Z,98.50
2023-05-14T12:14:42.783Z,98.50
2023-05-14T12:17:18.124Z,98.50
2023-05-14T12:19:46.504Z,98.50
2023-05-14T12:22:16.489Z,98.50
2023-05-14T12:24:43.769Z,98.50
2023-05-14T12:27:10.992Z,98.50
2023-05-14T12:29:40.596Z,98.50
2023-05-14T12:32:11.330Z,98.50
2023-05-14T12:34:38.689Z,98.50
2023-05-14T12:37:06.608Z,98.50
2023-05-14T12:39:34.681Z,98.50
2023-05-14T12:42:01.905Z,98.50
2023-05-14T12:44:28.793Z,98.50
2023-05-14T12:46:55.689Z,98.40
2023-05-14T12:49:22.460Z,98.50
2023-05-14T12:51:51.180Z,98.10
2023-05-14T12:54:19.487Z,97.00
2023-05-14T12:56:46.286Z,96.00
2023-05-14T12:59:13.038Z,97.40
2023-05-14T13:01:41.254Z,96.50
2023-05-14T13:04:12.281Z,97.30
2023-05-14T13:06:39.927Z,97.00
2023-05-14T13:09:07.741Z,97.70
2023-05-14T13:11:34.471Z,97.00
2023-05-14T13:14:04.246Z,96.90
2023-05-14T13:16:31.386Z,98.50
2023-05-14T13:18:58.166Z,98.00
2023-05-14T13:21:25.065Z,96.60
2023-05-14T13:23:51.891Z,95.70
2023-05-14T13:26:18.604Z,96.20
2023-05-14T13:28:45.404Z,96.70
2023-05-14T13:31:14.437Z,97.40
2023-05-14T13:33:43.749Z,97.40
2023-05-14T13:36:11.992Z,97.40
2023-05-14T13:38:39.115Z,97.40
2023-05-14T13:41:06.205Z,96.30
2023-05-14T13:43:34.144Z,97.30
2023-05-14T13:46:03.924Z,98.00
2023-05-14T13:48:33.907Z,98.50
2023-05-14T13:51:00.729Z,98.50
2023-05-14T13:53:27.501Z,98.50
2023-05-14T13:55:56.631Z,98.50
2023-05-14T13:58:28.597Z,97.40
2023-05-14T14:00:55.986Z,94.20
2023-05-14T14:03:22.783Z,95.80
2023-05-14T14:05:50.134Z,94.60
2023-05-14T14:08:23.217Z,94.20
2023-05-14T14:10:51.604Z,94.30
2023-05-14T14:13:18.330Z,96.50
2023-05-14T14:15:45.243Z,98.20
2023-05-14T14:18:12.013Z,95.10
2023-05-14T14:20:38.684Z,92.40
2023-05-14T14:23:05.434Z,94.00
2023-05-14T14:25:32.136Z,91.80
2023-05-14T14:27:58.917Z,95.00
2023-05-14T14:30:25.631Z,93.80
2023-05-14T14:32:52.813Z,93.60
2023-05-14T14:35:20.167Z,91.60
2023-05-14T14:37:52.215Z,93.00
2023-05-14T14:40:19.295Z,93.70
2023-05-14T14:42:46.134Z,94.70
2023-05-14T14:45:12.922Z,95.60
2023-05-14T14:47:44.989Z,95.30
2023-05-14T14:50:12.982Z,95.70
2023-05-14T14:52:40.869Z,94.00
2023-05-14T14:55:07.892Z,93.60
2023-05-14T14:57:34.602Z,92.70
2023-05-14T15:00:02.557Z,91.00
2023-05-14T15:02:29.745Z,91.80
2023-05-14T15:04:56.456Z,92.60
2023-05-14T15:07:23.164Z,92.20
2023-05-14T15:09:49.901Z,93.30
2023-05-14T15:12:17.118Z,94.20
2023-05-14T15:14:43.816Z,95.70
2023-05-14T15:17:10.679Z,94.60
2023-05-14T15:19:37.463Z,96.40
2023-05-14T15:22:04.531Z,97.20
2023-05-14T15:24:31.455Z,97.70
2023-05-14T15:26:58.507Z,98.50
2023-05-14T15:29:25.270Z,98.50
2023-05-14T15:31:52.055Z,98.50
2023-05-14T15:34:18.751Z,98.50
2023-05-14T15:36:45.435Z,98.50
2023-05-14T15:39:12.958Z,98.50
2023-05-14T15:41:39.814Z,98.50
2023-05-14T15:44:06.612Z,98.50
2023-05-14T15:46:33.518Z,98.50
2023-05-14T15:49:00.228Z,98.50
2023-05-14T15:51:26.994Z,98.50
2023-05-14T15:53:55.398Z,98.50
2023-05-14T15:56:22.905Z,98.50
2023-05-14T15:58:50.108Z,98.50
2023-05-14T16:01:18.568Z,98.50
2023-05-14T16:03:45.642Z,98.50
2023-05-14T16:06:12.463Z,98.50
2023-05-14T16:08:39.160Z,98.50
2023-05-14T16:11:06.418Z,98.50
2023-05-14T16:13:33.762Z,98.50
2023-05-14T16:16:01.221Z,98.50
2023-05-14T16:18:28.018Z,98.50
2023-05-14T16:20:54.924Z,98.50
2023-05-14T16:23:21.750Z,98.50
2023-05-14T16:25:48.422Z,98.50
2023-05-14T16:28:15.354Z,98.50
2023-05-14T16:30:42.028Z,98.50
2023-05-14T16:33:08.772Z,98.50
2023-05-14T16:35:35.551Z,98.50
2023-05-14T16:38:02.342Z,98.50
2023-05-14T16:40:29.055Z,98.50
2023-05-14T16:42:55.743Z,98.50
2023-05-14T16:45:22.560Z,98.50
2023-05-14T16:47:49.474Z,98.50
2023-05-14T16:50:16.424Z,98.50
2023-05-14T16:52:43.134Z,98.50
2023-05-14T16:55:09.885Z,98.50
2023-05-14T16:57:36.681Z,98.50
2023-05-14T17:00:06.156Z,98.50
2023-05-14T17:02:33.695Z,98.50
2023-05-14T17:05:00.659Z,98.50
2023-05-14T17:07:27.537Z,98.50
2023-05-14T17:09:54.277Z,98.50
2023-05-14T17:12:21.373Z,98.50
2023-05-14T17:14:48.051Z,98.50
2023-05-14T17:17:14.807Z,98.50
2023-05-14T17:19:42.657Z,98.50
2023-05-14T17:22:09.784Z,98.50
2023-05-14T17:24:38.936Z,98.50
2023-05-14T17:27:06.244Z,98.50
2023-05-14T17:29:33.017Z,98.50
2023-05-14T17:32:00.116Z,98.50
2023-05-14T17:34:26.891Z,98.50
2023-05-14T17:36:53.691Z,98.50
2023-05-14T17:39:20.648Z,98.50
2023-05-14T17:41:47.433Z,98.50
2023-05-14T17:44:14.234Z,98.50
2023-05-14T17:46:41.947Z,98.50
2023-05-14T17:49:08.752Z,98.50
2023-05-14T17:51:35.503Z,98.50
2023-05-14T17:54:02.219Z,98.50
2023-05-14T17:56:29.007Z,98.50
2023-05-14T17:58:55.739Z,98.50
2023-05-14T18:01:22.720Z,98.50
2023-05-14T18:03:49.699Z,98.50
2023-05-14T18:06:16.897Z,98.50
2023-05-14T18:08:43.716Z,98.50
2023-05-14T18:11:10.436Z,98.50
2023-05-14T18:13:37.204Z,98.50
2023-05-14T18:16:04.160Z,98.50
2023-05-14T18:18:31.150Z,98.50
2023-05-14T18:20:58.090Z,98.50
2023-05-14T18:23:24.827Z,98.50
2023-05-14T18:25:51.579Z,98.50
2023-05-14T18:28:18.980Z,98.50
2023-05-14T18:30:45.833Z,98.50
2023-05-14T18:33:13.004Z,98.50
2023-05-14T18:35:41.557Z,98.50
2023-05-14T18:38:08.417Z,98.50
2023-05-14T18:40:35.306Z,98.50
2023-05-14T18:43:02.180Z,98.50
2023-05-14T18:45:28.948Z,98.50
2023-05-14T18:47:56.545Z,98.50
2023-05-14T18:50:23.469Z,98.50
2023-05-14T18:52:50.121Z,98.50
2023-05-14T18:55:16.913Z,98.50
2023-05-14T18:57:43.682Z,98.50
2023-05-14T19:00:11.056Z,98.50
2023-05-14T19:02:37.782Z,98.50
2023-05-14T19:05:04.794Z,98.50
2023-05-14T19:07:31.554Z,98.50
2023-05-14T19:09:58.310Z,98.50
2023-05-14T19:12:24.984Z,98.50
2023-05-14T19:14:51.789Z,98.50
2023-05-14T19:17:19.933Z,98.50
2023-05-14T19:19:47.362Z,98.50
2023-05-14T19:22:14.211Z,98.50
2023-05-14T19:24:41.015Z,98.50
2023-05-14T19:27:08.553Z,98.50
2023-05-14T19:29:36.979Z,98.50
2023-05-14T19:32:04.743Z,98.50
2023-05-14T19:34:31.640Z,98.50
2023-05-14T19:36:58.401Z,98.50
2023-05-14T19:39:25.096Z,98.50
2023-05-14T19:41:51.859Z,98.50
2023-05-14T19:44:18.551Z,98.50
2023-05-14T19:46:45.638Z,98.50
2023-05-14T19:49:12.664Z,98.50
2023-05-14T19:51:39.482Z,98.50
2023-05-14T19:54:06.782Z,98.50
2023-05-14T19:56:34.105Z,98.50
2023-05-14T19:59:00.911Z,98.50
2023-05-14T20:01:27.713Z,98.50
2023-05-14T20:03:54.421Z,98.50
2023-05-14T20:06:21.342Z,98.50
2023-05-14T20:08:48.088Z,98.50
2023-05-14T20:11:15.711Z,98.50
2023-05-14T20:13:42.456Z,98.50
2023-05-14T20:16:09.267Z,98.50
2023-05-14T20:18:36.363Z,98.50
2023-05-14T20:21:03.872Z,98.50
2023-05-14T20:23:30.659Z,98.50
2023-05-14T20:25:57.473Z,98.50
2023-05-14T20:28:24.229Z,98.50
2023-05-14T20:30:51.232Z,98.50
2023-05-14T20:33:17.986Z,98.50
2023-05-14T20:35:44.687Z,98.50
2023-05-14T20:38:13.032Z,98.50
2023-05-14T20:40:40.355Z,98.50
2023-05-14T20:43:07.532Z,98.50
2023-05-14T20:45:34.273Z,98.50
2023-05-14T20:48:01.153Z,98.50
2023-05-14T20:50:28.418Z,98.50
2023-05-14T20:52:55.870Z,98.50
2023-05-14T20:55:23.039Z,98.50
2023-05-14T20:57:50.093Z,98.50
2023-05-14T21:00:17.466Z,98.50
2023-05-14T21:02:44.374Z,98.50
2023-05-14T21:05:11.455Z,98.50
2023-05-14T21:07:39.447Z,98.50
2023-05-14T21:10:09.121Z,98.50
2023-05-14T21:12:35.908Z,98.50
2023-05-14T21:15:03.170Z,98.50
2023-05-14T21:17:30.282Z,98.50
2023-05-14T21:19:57.177Z,98.50
2023-05-14T21:22:26.596Z,98.50
2023-05-14T21:24:54.624Z,98.50
2023-05-14T21:27:22.781Z,98.50
2023-05-14T21:29:49.498Z,98.50
2023-05-14T21:32:16.255Z,98.50
2023-05-14T21:34:43.367Z,98.50
2023-05-14T21:37:10.087Z,98.50
2023-05-14T21:39:36.967Z,98.50
2023-05-14T21:42:03.896Z,98.50
2023-05-14T21:44:30.662Z,98.50
2023-05-14T21:46:57.397Z,98.50
2023-05-14T21:49:24.194Z,98.50
2023-05-14T21:51:53.169Z,98.50
2023-05-14T21:54:20.952Z,98.50
2023-05-14T21:56:47.978Z,98.50
2023-05-14T21:59:14.859Z,98.50
2023-05-14T22:02:04.763Z,98.50
2023-05-14T22:04:28.666Z,98.50
2023-05-14T22:06:55.652Z,98.50
2023-05-14T22:09:22.375Z,98.50
2023-05-14T22:11:49.036Z,98.50
2023-05-14T22:14:16.084Z,98.50
2023-05-14T22:16:42.870Z,98.50
2023-05-14T22:19:09.661Z,98.50
2023-05-14T22:21:36.558Z,98.50
2023-05-14T22:24:03.318Z,98.50
2023-05-14T22:26:30.030Z,98.50
2023-05-14T22:28:57.697Z,98.50
2023-05-14T22:31:24.454Z,98.50
2023-05-14T22:33:51.283Z,98.50
2023-05-14T22:36:18.232Z,98.50
2023-05-14T22:38:44.935Z,98.50
2023-05-14T22:41:12.178Z,98.50
2023-05-14T22:43:38.921Z,98.50
2023-05-14T22:46:06.309Z,98.50
2023-05-14T22:48:33.064Z,98.50
2023-05-14T22:50:59.746Z,98.50
2023-05-14T22:53:26.699Z,98.50
2023-05-14T22:55:53.556Z,98.50
2023-05-14T22:58:20.486Z,98.50
2023-05-14T23:00:47.205Z,98.50
2023-05-14T23:03:13.872Z,98.50
2023-05-14T23:05:40.788Z,98.50
2023-05-14T23:08:07.503Z,98.50
2023-05-14T23:10:35.572Z,98.50
2023-05-14T23:13:02.277Z,98.50
2023-05-14T23:15:29.061Z,98.50
2023-05-14T23:17:56.025Z,98.50
2023-05-14T23:20:22.735Z,98.50
2023-05-14T23:22:49.538Z,98.50
2023-05-14T23:25:16.344Z,98.50
2023-05-14T23:27:43.028Z,98.50
2023-05-14T23:30:10.380Z,98.50
2023-05-14T23:32:37.111Z,98.50
2023-05-14T23:35:04.213Z,98.50
2023-05-14T23:37:31.101Z,98.50
2023-05-14T23:39:58.194Z,98.50
2023-05-14T23:42:24.995Z,98.50
2023-05-14T23:44:51.701Z,98.50
2023-05-14T23:47:18.444Z,98.50
2023-05-14T23:49:45.248Z,98.50
2023-05-14T23:52:12.562Z,98.50
2023-05-14T23:54:39.330Z,98.50
2023-05-14T23:57:06.353Z,98.50
2023-05-14T23:59:33.044Z,98.50
